Time;durP1;ratioP1;P1;durP2;ratioP2;P2;SDS_P1;SDS_P2;PMS_P1;PMS_P2;Temp;Humidity;BMP_temperature;BMP_pressure;BME280_temperature;BME280_humidity;BME280_pressure;Samples;Min_cycle;Max_cycle;Signal;HPM_P1;HPM_P2
2023/07/08 00:00:12;;;;;;;14.73;8.40;;;21.90;84.80;;;;;;477160;249;29488;-79
2023/07/08 00:02:13;;;;;;;13.20;8.20;;;21.80;84.70;;;;;;477143;249;29005;-80
2023/07/08 00:04:15;;;;;;;11.63;8.10;;;21.80;84.50;;;;;;477224;249;29039;-79
2023/07/08 00:06:16;;;;;;;12.40;8.33;;;21.80;84.40;;;;;;477183;249;28877;-80
2023/07/08 00:08:17;;;;;;;11.70;7.83;;;21.80;84.40;;;;;;477184;249;29011;-80
2023/07/08 00:10:18;;;;;;;13.90;8.20;;;21.80;84.50;;;;;;477120;249;28880;-80
2023/07/08 00:12:20;;;;;;;12.70;7.90;;;21.80;84.40;;;;;;477186;249;28918;-80
2023/07/08 00:14:21;;;;;;;10.93;7.80;;;21.80;84.60;;;;;;477205;249;29475;-80
2023/07/08 00:16:22;;;;;;;11.50;7.60;;;21.70;85.20;;;;;;477195;249;29474;-80
2023/07/08 00:18:23;;;;;;;10.03;7.57;;;21.60;85.80;;;;;;477230;249;29498;-80
2023/07/08 00:20:25;;;;;;;14.50;7.60;;;21.50;86.30;;;;;;477174;249;28872;-80
2023/07/08 00:22:26;;;;;;;9.83;6.87;;;21.40;86.20;;;;;;477174;249;28943;-80
2023/07/08 00:24:27;;;;;;;10.00;7.10;;;21.30;86.60;;;;;;477216;249;28933;-79
2023/07/08 00:26:28;;;;;;;10.83;7.90;;;21.30;87.50;;;;;;477200;249;28877;-80
2023/07/08 00:28:30;;;;;;;8.97;6.80;;;21.30;86.40;;;;;;477197;249;28925;-80
2023/07/08 00:30:31;;;;;;;13.10;8.00;;;21.20;87.00;;;;;;477151;249;28997;-79
2023/07/08 00:32:32;;;;;;;11.13;7.50;;;21.20;88.90;;;;;;477146;249;28920;-80
2023/07/08 00:34:33;;;;;;;10.40;7.60;;;21.10;88.30;;;;;;477180;249;29515;-80
2023/07/08 00:36:35;;;;;;;12.10;7.10;;;21.10;86.70;;;;;;477207;249;29451;-79
2023/07/08 00:38:36;;;;;;;9.03;7.17;;;21.20;86.40;;;;;;477182;249;29419;-79
2023/07/08 00:40:37;;;;;;;9.70;7.37;;;21.20;86.50;;;;;;477198;249;28881;-79
2023/07/08 00:42:38;;;;;;;14.97;7.93;;;21.20;85.80;;;;;;477219;249;28959;-80
2023/07/08 00:44:40;;;;;;;12.10;7.63;;;21.20;85.80;;;;;;477211;249;28933;-79
2023/07/08 00:46:41;;;;;;;12.83;7.70;;;21.30;85.50;;;;;;477228;247;28875;-79
2023/07/08 00:48:42;;;;;;;9.57;6.87;;;21.30;86.20;;;;;;477216;249;29023;-79
2023/07/08 00:50:43;;;;;;;9.20;7.37;;;21.20;86.60;;;;;;477209;249;28889;-79
2023/07/08 00:52:46;;;;;;;10.53;7.00;;;21.10;86.50;;;;;;477199;249;29024;-79
2023/07/08 00:54:46;;;;;;;14.03;8.57;;;21.10;86.70;;;;;;477149;249;29405;-80
2023/07/08 00:56:47;;;;;;;10.70;8.13;;;21.10;86.00;;;;;;477219;249;29356;-79
2023/07/08 00:58:48;;;;;;;11.17;6.97;;;21.10;86.10;;;;;;477184;249;29491;-80
2023/07/08 01:00:51;;;;;;;11.10;7.03;;;21.10;86.50;;;;;;477185;249;28948;-79
2023/07/08 01:02:51;;;;;;;11.40;7.87;;;21.20;85.70;;;;;;477174;249;28901;-80
2023/07/08 01:04:53;;;;;;;9.53;6.83;;;21.10;85.80;;;;;;477243;249;28915;-79
2023/07/08 01:06:57;;;;;;;11.17;7.47;;;21.10;86.50;;;;;;477224;249;28984;-79
2023/07/08 01:08:55;;;;;;;10.83;7.77;;;21.10;85.50;;;;;;476969;249;29055;-80
2023/07/08 01:10:56;;;;;;;10.73;7.47;;;21.20;84.70;;;;;;477239;249;28887;-79
2023/07/08 01:12:57;;;;;;;9.17;7.03;;;21.30;90.50;;;;;;477208;249;29412;-80
2023/07/08 01:14:59;;;;;;;9.90;6.93;;;20.90;93.40;;;;;;477235;249;29393;-80
2023/07/08 01:17:00;;;;;;;8.93;7.00;;;20.50;96.40;;;;;;477234;249;29459;-80
2023/07/08 01:19:01;;;;;;;9.83;7.97;;;20.10;97.60;;;;;;477201;249;29566;-79
2023/07/08 01:21:06;;;;;;;11.20;7.33;;;19.90;98.30;;;;;;477198;249;28912;-79
2023/07/08 01:23:04;;;;;;;13.10;7.30;;;19.70;99.90;;;;;;476948;249;28916;-79
2023/07/08 01:25:05;;;;;;;10.00;7.53;;;19.40;99.90;;;;;;477199;249;29020;-79
2023/07/08 01:27:06;;;;;;;9.87;7.23;;;19.10;99.90;;;;;;477239;249;28981;-80
2023/07/08 01:29:07;;;;;;;10.00;7.40;;;19.00;99.90;;;;;;477195;249;28986;-80
2023/07/08 01:31:09;;;;;;;11.93;7.90;;;19.00;99.90;;;;;;477166;249;28880;-79
2023/07/08 01:33:10;;;;;;;10.20;6.57;;;19.00;99.90;;;;;;477203;249;28969;-80
2023/07/08 01:35:11;;;;;;;10.07;7.37;;;19.00;99.90;;;;;;477224;249;29383;-80
2023/07/08 01:37:12;;;;;;;9.20;7.13;;;19.20;99.90;;;;;;477199;249;29421;-79
2023/07/08 01:39:14;;;;;;;10.40;7.70;;;19.20;99.90;;;;;;477184;249;29017;-80
2023/07/08 01:41:15;;;;;;;12.60;7.23;;;19.40;99.30;;;;;;477175;249;28856;-80
2023/07/08 01:43:16;;;;;;;12.60;6.60;;;19.50;97.90;;;;;;477179;249;28915;-79
2023/07/08 01:45:17;;;;;;;9.40;6.70;;;19.60;96.60;;;;;;477225;249;29023;-79
2023/07/08 01:47:19;;;;;;;11.10;7.53;;;19.70;95.00;;;;;;477203;249;28892;-80
2023/07/08 01:49:20;;;;;;;9.93;7.27;;;19.80;94.60;;;;;;477195;249;29041;-80
2023/07/08 01:51:21;;;;;;;9.27;6.37;;;19.80;93.90;;;;;;477201;249;28858;-80
2023/07/08 01:53:22;;;;;;;10.60;6.80;;;19.90;93.70;;;;;;477198;249;28914;-79
2023/07/08 01:55:24;;;;;;;11.50;7.10;;;19.90;93.30;;;;;;477217;249;29414;-79
2023/07/08 01:57:25;;;;;;;8.47;6.67;;;20.00;92.70;;;;;;477185;249;29347;-79
2023/07/08 01:59:26;;;;;;;9.97;6.70;;;20.10;92.80;;;;;;477132;249;29474;-79
2023/07/08 02:01:27;;;;;;;10.20;7.17;;;20.10;92.90;;;;;;477164;249;28853;-79
2023/07/08 02:03:29;;;;;;;8.63;6.50;;;20.10;92.40;;;;;;477190;249;28934;-79
2023/07/08 02:05:30;;;;;;;9.93;7.10;;;20.10;92.10;;;;;;477157;249;28923;-79
2023/07/08 02:07:31;;;;;;;9.00;6.57;;;20.20;91.70;;;;;;477173;249;28888;-79
2023/07/08 02:09:32;;;;;;;8.47;6.23;;;20.20;91.70;;;;;;477216;249;28921;-80
2023/07/08 02:11:34;;;;;;;9.47;7.10;;;20.30;91.60;;;;;;477193;249;28961;-79
2023/07/08 02:13:35;;;;;;;11.73;6.80;;;20.30;91.80;;;;;;477159;249;28930;-79
2023/07/08 02:15:36;;;;;;;11.23;7.13;;;20.30;91.30;;;;;;477200;249;28916;-79
2023/07/08 02:17:37;;;;;;;12.07;6.80;;;20.30;91.40;;;;;;477201;249;29460;-80
2023/07/08 02:19:39;;;;;;;8.70;6.60;;;20.30;91.80;;;;;;477197;249;29475;-79
2023/07/08 02:21:40;;;;;;;9.20;6.63;;;20.30;91.30;;;;;;477223;249;28984;-79
2023/07/08 02:23:41;;;;;;;10.23;6.67;;;20.30;91.60;;;;;;477209;249;28952;-80
2023/07/08 02:25:42;;;;;;;9.30;6.90;;;20.20;92.10;;;;;;477240;249;28926;-80
2023/07/08 02:27:44;;;;;;;8.20;6.40;;;20.30;92.20;;;;;;477259;249;28896;-80
2023/07/08 02:29:45;;;;;;;8.80;6.93;;;20.30;91.90;;;;;;477227;249;29035;-80
2023/07/08 02:31:46;;;;;;;11.20;6.87;;;20.30;92.20;;;;;;477198;249;28998;-80
2023/07/08 02:33:47;;;;;;;11.07;7.40;;;20.30;92.10;;;;;;477215;249;28950;-80
2023/07/08 02:35:49;;;;;;;11.40;7.37;;;20.30;92.10;;;;;;477214;249;28907;-80
2023/07/08 02:37:50;;;;;;;8.10;6.43;;;20.30;91.70;;;;;;477222;249;29325;-80
2023/07/08 02:39:51;;;;;;;10.07;6.83;;;20.30;91.90;;;;;;477220;249;29467;-80
2023/07/08 02:41:52;;;;;;;9.47;6.40;;;20.30;91.90;;;;;;477222;249;29527;-80
2023/07/08 02:43:54;;;;;;;8.47;6.30;;;20.30;91.90;;;;;;477209;249;28922;-80
2023/07/08 02:45:55;;;;;;;9.80;6.40;;;20.30;91.60;;;;;;477190;249;28895;-80
2023/07/08 02:47:56;;;;;;;10.90;7.03;;;20.30;91.60;;;;;;477200;249;29033;-79
2023/07/08 02:49:57;;;;;;;13.13;7.13;;;20.30;92.10;;;;;;477192;249;29023;-80
2023/07/08 02:51:59;;;;;;;9.57;7.03;;;20.30;91.90;;;;;;477199;247;28883;-80
2023/07/08 02:54:00;;;;;;;10.80;6.90;;;20.30;91.40;;;;;;477169;249;28934;-80
2023/07/08 02:56:01;;;;;;;10.53;7.27;;;20.30;91.30;;;;;;477201;249;28947;-81
2023/07/08 02:58:02;;;;;;;13.00;7.77;;;20.20;91.60;;;;;;477197;249;29424;-80
2023/07/08 03:00:07;;;;;;;9.90;6.57;;;20.20;91.50;;;;;;477211;249;29471;-80
2023/07/08 03:02:08;;;;;;;9.53;6.30;;;20.20;91.60;;;;;;477188;247;29009;-79
2023/07/08 03:04:12;;;;;;;9.53;6.80;;;20.20;91.70;;;;;;477191;249;28957;-80
2023/07/08 03:06:10;;;;;;;12.80;6.87;;;20.20;91.70;;;;;;476947;249;28906;-80
2023/07/08 03:08:12;;;;;;;10.20;7.30;;;20.20;91.00;;;;;;477185;249;29010;-80
2023/07/08 03:10:13;;;;;;;9.23;6.80;;;20.20;91.30;;;;;;477182;249;28939;-79
2023/07/08 03:12:14;;;;;;;8.40;6.40;;;20.20;91.20;;;;;;477204;249;29443;-80
2023/07/08 03:14:15;;;;;;;9.77;6.40;;;20.10;92.70;;;;;;477204;249;29314;-80
2023/07/08 03:16:17;;;;;;;10.13;6.80;;;20.10;92.80;;;;;;477201;249;29448;-79
2023/07/08 03:18:18;;;;;;;8.47;5.83;;;20.00;93.40;;;;;;477173;249;28975;-80
2023/07/08 03:20:19;;;;;;;8.57;6.17;;;20.00;92.30;;;;;;477190;249;28985;-79
2023/07/08 03:22:20;;;;;;;10.83;6.97;;;19.90;92.30;;;;;;477182;249;29027;-79
2023/07/08 03:24:22;;;;;;;9.90;6.30;;;20.00;91.30;;;;;;477203;249;28867;-80
2023/07/08 03:26:23;;;;;;;11.57;7.33;;;20.00;91.10;;;;;;479198;240;28767;-79
2023/07/08 03:28:24;;;;;;;9.03;6.67;;;20.00;92.30;;;;;;485779;245;28812;-79
2023/07/08 03:30:25;;;;;;;13.10;7.10;;;20.00;92.00;;;;;;485769;245;28836;-79
2023/07/08 03:32:27;;;;;;;11.60;8.63;;;20.00;91.50;;;;;;485775;245;28920;-80
2023/07/08 03:34:28;;;;;;;11.97;7.10;;;20.10;91.40;;;;;;485768;245;29254;-80
2023/07/08 03:36:29;;;;;;;9.70;6.37;;;20.10;91.90;;;;;;485781;245;29377;-79
2023/07/08 03:38:30;;;;;;;9.53;6.43;;;20.20;92.90;;;;;;485732;245;29280;-79
2023/07/08 03:40:32;;;;;;;12.87;7.70;;;20.20;93.70;;;;;;485721;245;28928;-79
2023/07/08 03:42:33;;;;;;;10.03;7.00;;;20.20;93.90;;;;;;485758;245;28933;-79
2023/07/08 03:44:34;;;;;;;10.13;7.13;;;20.20;94.30;;;;;;485749;245;28861;-80
2023/07/08 03:46:35;;;;;;;11.60;7.03;;;20.10;94.10;;;;;;485748;245;28923;-80
2023/07/08 03:48:37;;;;;;;11.23;8.00;;;20.10;93.70;;;;;;485717;245;28870;-80
2023/07/08 03:50:38;;;;;;;12.47;7.87;;;20.10;94.00;;;;;;485730;245;28870;-79
2023/07/08 03:52:39;;;;;;;9.97;7.47;;;20.00;94.60;;;;;;485717;245;29352;-79
2023/07/08 03:54:40;;;;;;;13.37;7.80;;;19.90;94.50;;;;;;485771;245;29366;-79
2023/07/08 03:56:42;;;;;;;11.47;7.27;;;19.80;94.80;;;;;;485727;245;29469;-80
2023/07/08 03:58:43;;;;;;;9.60;6.40;;;19.80;95.20;;;;;;485719;245;28803;-79
2023/07/08 04:00:44;;;;;;;14.17;6.50;;;19.80;95.80;;;;;;485726;245;28838;-80
2023/07/08 04:02:45;;;;;;;9.70;6.63;;;19.80;96.10;;;;;;485771;245;28857;-80
2023/07/08 04:04:47;;;;;;;11.07;6.90;;;19.80;96.50;;;;;;485762;245;28853;-79
2023/07/08 04:06:50;;;;;;;15.23;7.20;;;19.80;96.80;;;;;;485737;245;28918;-80
2023/07/08 04:08:49;;;;;;;8.03;6.37;;;19.80;97.00;;;;;;485614;245;29251;-80
2023/07/08 04:10:51;;;;;;;12.43;7.00;;;19.80;96.80;;;;;;485713;245;29339;-80
2023/07/08 04:12:52;;;;;;;8.20;6.20;;;19.80;96.80;;;;;;485757;245;29488;-80
2023/07/08 04:14:53;;;;;;;9.80;6.73;;;19.70;96.60;;;;;;485746;245;28887;-80
2023/07/08 04:16:54;;;;;;;9.70;6.53;;;19.70;96.70;;;;;;481060;242;28950;-79
2023/07/08 04:18:56;;;;;;;8.50;6.60;;;19.70;96.70;;;;;;476912;248;28927;-79
2023/07/08 04:20:57;;;;;;;10.50;7.53;;;19.60;97.40;;;;;;476920;248;28916;-79
2023/07/08 04:22:58;;;;;;;9.57;6.93;;;19.60;97.30;;;;;;476919;248;29278;-80
2023/07/08 04:24:59;;;;;;;12.20;7.27;;;19.50;98.00;;;;;;476971;248;28856;-79
2023/07/08 04:27:01;;;;;;;10.73;7.00;;;19.40;98.00;;;;;;476972;248;28880;-79
2023/07/08 04:29:02;;;;;;;9.57;6.67;;;19.30;97.90;;;;;;476958;248;28857;-80
2023/07/08 04:31:03;;;;;;;10.80;6.77;;;19.20;97.90;;;;;;476919;248;29398;-79
2023/07/08 04:33:06;;;;;;;12.23;7.40;;;19.30;98.30;;;;;;476949;248;29533;-79
2023/07/08 04:35:06;;;;;;;10.50;6.83;;;19.30;97.70;;;;;;476817;249;29385;-80
2023/07/08 04:37:07;;;;;;;7.77;6.27;;;19.20;97.90;;;;;;476935;248;28894;-80
2023/07/08 04:39:08;;;;;;;10.90;6.97;;;19.30;98.10;;;;;;476890;248;28939;-80
2023/07/08 04:41:09;;;;;;;9.27;7.13;;;19.30;97.70;;;;;;476879;248;28986;-79
2023/07/08 04:43:11;;;;;;;9.33;6.10;;;19.30;97.20;;;;;;476946;248;29148;-79
2023/07/08 04:45:12;;;;;;;8.80;6.23;;;19.30;97.30;;;;;;476925;248;28798;-80
2023/07/08 04:47:13;;;;;;;9.83;6.70;;;19.30;97.50;;;;;;476948;248;28894;-79
2023/07/08 04:49:14;;;;;;;9.13;6.43;;;19.30;97.20;;;;;;476945;248;28813;-80
2023/07/08 04:51:16;;;;;;;9.47;6.93;;;19.30;96.90;;;;;;476951;248;28972;-79
2023/07/08 04:53:17;;;;;;;13.40;7.43;;;19.30;96.30;;;;;;476972;248;29364;-80
2023/07/08 04:55:18;;;;;;;9.97;7.27;;;19.30;95.90;;;;;;476966;248;29310;-80
2023/07/08 04:57:20;;;;;;;13.23;8.80;;;19.30;95.80;;;;;;476957;248;29356;-79
2023/07/08 04:59:21;;;;;;;9.80;6.40;;;19.40;96.00;;;;;;476862;248;28847;-79
2023/07/08 05:01:22;;;;;;;13.17;7.10;;;19.40;95.70;;;;;;476915;248;28882;-79
2023/07/08 05:03:23;;;;;;;10.63;7.10;;;19.50;95.40;;;;;;476949;248;28882;-79
2023/07/08 05:05:24;;;;;;;11.47;8.20;;;19.60;95.10;;;;;;476961;248;28922;-80
2023/07/08 05:07:26;;;;;;;10.50;7.63;;;19.60;95.00;;;;;;476908;248;28879;-80
2023/07/08 05:09:27;;;;;;;11.13;7.37;;;19.70;95.10;;;;;;476941;248;28968;-80
2023/07/08 05:11:28;;;;;;;9.90;7.20;;;19.70;94.90;;;;;;476895;248;29456;-79
2023/07/08 05:13:29;;;;;;;8.87;6.53;;;19.80;95.20;;;;;;476955;247;29352;-80
2023/07/08 05:15:31;;;;;;;9.73;7.30;;;19.80;95.10;;;;;;476960;248;29297;-79
2023/07/08 05:17:32;;;;;;;9.70;7.07;;;20.00;95.00;;;;;;476918;248;29407;-80
2023/07/08 05:19:33;;;;;;;10.33;7.30;;;20.10;95.10;;;;;;476923;248;28845;-80
2023/07/08 05:21:34;;;;;;;9.20;6.53;;;20.20;96.10;;;;;;476892;248;29029;-80
2023/07/08 05:23:36;;;;;;;9.97;7.33;;;20.20;96.50;;;;;;476911;248;28903;-79
2023/07/08 05:25:37;;;;;;;10.73;7.67;;;20.00;96.00;;;;;;476936;248;29012;-80
2023/07/08 05:27:38;;;;;;;9.10;7.20;;;20.00;95.90;;;;;;476942;248;29024;-79
2023/07/08 05:29:39;;;;;;;9.80;7.40;;;20.10;96.50;;;;;;476937;248;28852;-78
2023/07/08 05:31:41;;;;;;;8.80;6.60;;;20.00;99.40;;;;;;476917;248;28919;-79
2023/07/08 05:33:42;;;;;;;9.70;7.17;;;19.80;99.90;;;;;;476940;248;28995;-79
2023/07/08 05:35:43;;;;;;;12.90;7.13;;;19.80;99.90;;;;;;476941;248;29301;-80
2023/07/08 05:37:46;;;;;;;9.63;7.13;;;19.80;97.90;;;;;;476934;249;29442;-79
2023/07/08 05:39:46;;;;;;;12.03;7.70;;;20.00;97.00;;;;;;476786;249;29323;-79
2023/07/08 05:41:47;;;;;;;9.17;6.73;;;20.10;95.30;;;;;;476937;248;29031;-80
2023/07/08 05:43:48;;;;;;;9.40;7.03;;;20.20;95.50;;;;;;476923;248;28990;-79
2023/07/08 05:45:49;;;;;;;9.37;7.40;;;20.40;95.50;;;;;;476929;248;28788;-80
2023/07/08 05:47:51;;;;;;;8.93;6.37;;;20.50;95.00;;;;;;476926;248;28972;-80
2023/07/08 05:49:52;;;;;;;10.10;6.90;;;20.60;95.10;;;;;;476947;248;28839;-80
2023/07/08 05:51:53;;;;;;;12.17;7.60;;;20.60;95.40;;;;;;476935;248;28980;-79
2023/07/08 05:53:54;;;;;;;8.90;6.77;;;20.70;95.50;;;;;;476916;248;28838;-79
2023/07/08 05:55:56;;;;;;;15.53;6.47;;;20.70;96.10;;;;;;476941;248;28864;-79
2023/07/08 05:57:57;;;;;;;8.97;6.70;;;20.70;96.90;;;;;;476846;248;29295;-80
2023/07/08 05:59:58;;;;;;;8.57;6.70;;;20.60;98.90;;;;;;476891;248;29300;-80
2023/07/08 06:01:59;;;;;;;9.73;7.17;;;20.50;99.90;;;;;;476878;248;29406;-79
2023/07/08 06:04:01;;;;;;;10.63;6.63;;;20.30;98.90;;;;;;476880;248;28922;-80
2023/07/08 06:06:02;;;;;;;10.57;7.13;;;20.40;98.90;;;;;;476936;248;28859;-80
2023/07/08 06:08:03;;;;;;;9.43;7.07;;;20.50;99.90;;;;;;476927;248;28794;-80
2023/07/08 06:10:04;;;;;;;8.77;5.97;;;20.60;99.90;;;;;;476903;248;28937;-79
2023/07/08 06:12:06;;;;;;;8.53;6.17;;;20.70;98.70;;;;;;476892;249;28886;-79
2023/07/08 06:14:07;;;;;;;8.70;5.97;;;20.90;99.30;;;;;;476890;248;28913;-80
2023/07/08 06:16:08;;;;;;;7.60;5.73;;;21.10;98.60;;;;;;476926;248;28931;-79
2023/07/08 06:18:09;;;;;;;7.60;5.60;;;21.20;97.50;;;;;;476919;248;28787;-79
2023/07/08 06:20:11;;;;;;;7.30;5.67;;;21.40;96.60;;;;;;476938;243;29290;-80
2023/07/08 06:22:12;;;;;;;6.87;5.33;;;21.40;96.60;;;;;;476911;248;29356;-80
2023/07/08 06:24:13;;;;;;;7.40;5.57;;;21.50;96.30;;;;;;476902;248;29493;-80
2023/07/08 06:26:14;;;;;;;9.57;6.23;;;21.60;96.20;;;;;;476938;248;28977;-80
2023/07/08 06:28:16;;;;;;;8.97;5.57;;;21.70;96.20;;;;;;476930;248;28963;-80
2023/07/08 06:30:17;;;;;;;8.70;5.70;;;21.90;96.50;;;;;;476936;248;28970;-79
2023/07/08 06:32:18;;;;;;;7.67;5.00;;;21.90;96.90;;;;;;476917;248;28906;-79
2023/07/08 06:34:22;;;;;;;6.93;4.93;;;21.80;96.60;;;;;;476911;248;28907;-79
2023/07/08 06:36:22;;;;;;;7.53;5.30;;;21.80;96.90;;;;;;476785;249;29001;-80
2023/07/08 06:38:22;;;;;;;9.03;5.70;;;21.80;96.50;;;;;;476873;248;29247;-80
2023/07/08 06:40:23;;;;;;;7.57;5.70;;;21.90;97.00;;;;;;476939;248;29029;-80
2023/07/08 06:42:25;;;;;;;12.87;6.07;;;21.90;97.20;;;;;;476915;248;28909;-79
2023/07/08 06:44:26;;;;;;;9.70;6.00;;;22.10;97.20;;;;;;476928;248;29318;-80
2023/07/08 06:46:27;;;;;;;8.60;5.77;;;22.10;97.20;;;;;;476896;248;29481;-80
2023/07/08 06:48:28;;;;;;;8.50;5.47;;;22.20;97.60;;;;;;476940;248;29405;-79
2023/07/08 06:50:29;;;;;;;7.40;5.47;;;22.20;97.60;;;;;;476926;248;28759;-79
2023/07/08 06:52:35;;;;;;;10.03;6.30;;;22.30;97.90;;;;;;476907;248;28883;-79
2023/07/08 06:54:32;;;;;;;13.63;6.27;;;22.40;97.90;;;;;;476242;249;28828;-80
2023/07/08 06:56:33;;;;;;;7.60;5.30;;;22.40;97.70;;;;;;476936;248;28881;-80
2023/07/08 06:58:35;;;;;;;8.97;5.57;;;22.50;97.60;;;;;;476963;248;29263;-79
2023/07/08 07:00:36;;;;;;;8.83;5.50;;;22.60;97.80;;;;;;476927;249;28947;-79
2023/07/08 07:02:37;;;;;;;7.40;4.80;;;22.60;98.10;;;;;;476946;248;28942;-80
2023/07/08 07:04:38;;;;;;;7.07;4.83;;;22.70;98.30;;;;;;476910;248;28843;-80
2023/07/08 07:06:40;;;;;;;7.43;5.60;;;22.80;98.20;;;;;;476904;248;28925;-80
2023/07/08 07:08:41;;;;;;;7.30;5.20;;;22.70;98.20;;;;;;476935;248;29255;-80
2023/07/08 07:10:42;;;;;;;6.83;4.60;;;22.80;98.50;;;;;;476954;248;28843;-79
2023/07/08 07:12:43;;;;;;;9.53;6.10;;;22.90;98.20;;;;;;476944;248;28878;-79
2023/07/08 07:14:45;;;;;;;7.20;5.87;;;22.90;98.30;;;;;;476940;248;29300;-80
2023/07/08 07:16:46;;;;;;;6.10;5.30;;;22.90;98.10;;;;;;476945;248;29343;-80
2023/07/08 07:18:47;;;;;;;7.57;4.63;;;22.90;98.20;;;;;;476927;248;29346;-79
2023/07/08 07:20:48;;;;;;;8.63;4.73;;;22.90;98.40;;;;;;476961;248;28934;-79
2023/07/08 07:22:51;;;;;;;6.30;5.10;;;22.90;98.40;;;;;;476928;248;28993;-80
2023/07/08 07:24:51;;;;;;;10.90;5.67;;;22.90;98.70;;;;;;476833;249;28844;-80
2023/07/08 07:26:52;;;;;;;7.70;5.20;;;23.10;98.20;;;;;;476906;248;28875;-79
2023/07/08 07:28:53;;;;;;;9.30;5.77;;;23.10;98.00;;;;;;476893;248;29226;-81
2023/07/08 07:30:55;;;;;;;8.30;5.70;;;23.20;98.70;;;;;;476903;248;28952;-80
2023/07/08 07:32:56;;;;;;;7.67;4.80;;;23.30;98.40;;;;;;476903;248;29074;-80
2023/07/08 07:34:59;;;;;;;6.90;5.20;;;23.50;98.30;;;;;;476916;248;28957;-80
2023/07/08 07:36:58;;;;;;;7.33;4.50;;;23.60;98.30;;;;;;476828;249;28845;-80
2023/07/08 07:39:00;;;;;;;7.67;4.67;;;23.60;98.40;;;;;;476918;248;28877;-80
2023/07/08 07:41:05;;;;;;;8.53;4.80;;;23.60;98.50;;;;;;476934;248;28935;-80
2023/07/08 07:43:02;;;;;;;6.93;4.90;;;23.50;98.20;;;;;;476613;249;28973;-79
2023/07/08 07:45:03;;;;;;;12.53;5.30;;;23.50;98.60;;;;;;476927;248;29269;-79
2023/07/08 07:47:05;;;;;;;8.10;5.43;;;23.40;98.00;;;;;;476927;248;29425;-80
2023/07/08 07:49:06;;;;;;;12.10;5.10;;;23.30;98.10;;;;;;476935;248;29351;-80
2023/07/08 07:51:10;;;;;;;9.00;5.50;;;23.20;98.50;;;;;;476907;248;28968;-80
2023/07/08 07:53:08;;;;;;;6.80;4.57;;;23.30;98.90;;;;;;476648;249;28885;-80
2023/07/08 07:55:10;;;;;;;10.77;5.23;;;23.40;98.70;;;;;;476899;248;28837;-80
2023/07/08 07:57:11;;;;;;;7.97;4.73;;;23.40;98.80;;;;;;476925;248;28884;-79
2023/07/08 07:59:12;;;;;;;16.57;6.43;;;23.40;98.80;;;;;;476929;248;29234;-80
2023/07/08 08:01:14;;;;;;;6.67;5.10;;;23.60;98.80;;;;;;476929;248;28975;-81
2023/07/08 08:03:16;;;;;;;8.90;5.63;;;23.60;98.60;;;;;;476929;248;28894;-81
2023/07/08 08:05:16;;;;;;;9.97;5.27;;;23.60;98.60;;;;;;476839;249;28925;-81
2023/07/08 08:07:17;;;;;;;6.87;5.40;;;23.50;98.60;;;;;;476914;248;29382;-80
2023/07/08 08:09:19;;;;;;;7.33;5.00;;;23.40;98.90;;;;;;476905;248;29518;-79
2023/07/08 08:11:21;;;;;;;6.70;4.90;;;23.40;98.70;;;;;;476907;242;29399;-80
2023/07/08 08:13:21;;;;;;;9.97;5.87;;;23.40;99.00;;;;;;476876;248;29353;-80
2023/07/08 08:15:22;;;;;;;12.83;4.90;;;23.40;99.50;;;;;;476931;248;28962;-80
2023/07/08 08:17:23;;;;;;;10.47;6.17;;;23.50;98.80;;;;;;476913;248;28878;-80
2023/07/08 08:19:25;;;;;;;8.63;5.30;;;23.50;98.80;;;;;;476902;248;28971;-80
2023/07/08 08:21:26;;;;;;;7.17;5.13;;;23.50;98.30;;;;;;476931;248;28848;-80
2023/07/08 08:23:27;;;;;;;10.30;5.73;;;23.50;98.60;;;;;;476895;248;29007;-79
2023/07/08 08:25:29;;;;;;;9.30;5.33;;;23.60;99.10;;;;;;476955;248;28853;-80
2023/07/08 08:27:30;;;;;;;6.57;4.97;;;23.70;98.90;;;;;;476913;248;28879;-79
2023/07/08 08:29:31;;;;;;;9.10;5.87;;;23.90;99.10;;;;;;476938;248;29552;-80
2023/07/08 08:31:32;;;;;;;16.53;6.67;;;23.90;99.00;;;;;;476883;249;29221;-80
2023/07/08 08:33:34;;;;;;;6.90;5.10;;;24.10;99.10;;;;;;476965;248;29481;-80
2023/07/08 08:35:35;;;;;;;10.83;5.70;;;24.20;98.60;;;;;;476940;248;28790;-79
2023/07/08 08:37:36;;;;;;;9.70;5.40;;;24.20;98.60;;;;;;476959;248;28901;-80
2023/07/08 08:39:37;;;;;;;10.80;5.60;;;24.40;99.40;;;;;;476974;248;28902;-81
2023/07/08 08:41:39;;;;;;;7.40;5.50;;;24.30;98.30;;;;;;476981;248;28866;-80
2023/07/08 08:43:40;;;;;;;9.03;5.50;;;24.40;99.00;;;;;;476945;248;28803;-80
2023/07/08 08:45:41;;;;;;;7.37;5.53;;;24.40;98.40;;;;;;476924;248;28959;-80
2023/07/08 08:47:42;;;;;;;8.50;5.33;;;24.50;98.60;;;;;;476910;248;28897;-80
2023/07/08 08:49:44;;;;;;;9.60;5.47;;;24.60;98.80;;;;;;476915;248;29001;-80
2023/07/08 08:51:45;;;;;;;9.10;6.07;;;24.70;98.20;;;;;;476917;248;29409;-80
2023/07/08 08:53:46;;;;;;;10.07;5.93;;;24.90;98.30;;;;;;476921;248;29376;-81
2023/07/08 08:55:47;;;;;;;8.47;5.63;;;25.10;98.20;;;;;;476928;248;29372;-81
2023/07/08 08:57:49;;;;;;;10.83;5.50;;;25.10;98.20;;;;;;476924;248;29462;-81
2023/07/08 08:59:50;;;;;;;9.23;5.60;;;25.10;98.40;;;;;;476938;248;28886;-80
2023/07/08 09:01:51;;;;;;;15.23;5.00;;;25.10;97.80;;;;;;476934;248;28856;-80
2023/07/08 09:03:52;;;;;;;7.83;5.00;;;25.10;97.80;;;;;;476927;248;29012;-80
2023/07/08 09:05:54;;;;;;;8.33;4.83;;;25.20;97.90;;;;;;476925;248;28755;-80
2023/07/08 09:07:55;;;;;;;7.50;5.60;;;25.30;98.30;;;;;;476916;248;28918;-80
2023/07/08 09:09:56;;;;;;;8.87;5.70;;;25.30;98.10;;;;;;476953;248;28939;-80
2023/07/08 09:11:58;;;;;;;7.20;5.37;;;25.40;97.80;;;;;;476941;248;28929;-80
2023/07/08 09:13:59;;;;;;;7.67;5.83;;;25.40;98.30;;;;;;476928;248;28906;-80
2023/07/08 09:16:00;;;;;;;10.17;5.87;;;25.20;97.40;;;;;;476925;248;28843;-81
2023/07/08 09:18:01;;;;;;;18.60;5.87;;;25.20;98.30;;;;;;476934;248;28804;-80
2023/07/08 09:20:03;;;;;;;8.67;5.33;;;25.30;98.30;;;;;;476956;248;29229;-79
2023/07/08 09:22:04;;;;;;;6.30;5.43;;;25.30;97.70;;;;;;476942;248;29384;-81
2023/07/08 09:24:05;;;;;;;6.87;5.40;;;25.30;97.50;;;;;;476916;248;28881;-81
2023/07/08 09:26:07;;;;;;;13.37;6.17;;;25.20;97.20;;;;;;476929;248;29014;-80
2023/07/08 09:28:08;;;;;;;9.73;5.07;;;25.30;97.50;;;;;;476938;248;28965;-81
2023/07/08 09:30:09;;;;;;;7.63;5.60;;;25.30;97.50;;;;;;476933;248;28921;-80
2023/07/08 09:32:10;;;;;;;11.83;5.57;;;25.50;97.50;;;;;;476905;248;28843;-80
2023/07/08 09:34:12;;;;;;;10.38;5.70;;;25.50;98.00;;;;;;474809;248;36487;-81
2023/07/08 09:36:13;;;;;;;6.70;5.20;;;25.30;97.10;;;;;;476921;248;27575;-80
2023/07/08 09:38:14;;;;;;;7.20;5.53;;;25.20;96.70;;;;;;476944;248;29297;-80
2023/07/08 09:40:15;;;;;;;7.73;5.53;;;25.30;97.00;;;;;;476927;248;29423;-80
2023/07/08 09:42:17;;;;;;;10.00;6.17;;;25.30;97.20;;;;;;476939;248;29218;-80
2023/07/08 09:44:18;;;;;;;7.63;5.40;;;25.40;97.50;;;;;;476924;248;28889;-81
2023/07/08 09:46:20;;;;;;;8.90;5.33;;;25.50;98.10;;;;;;476935;248;28958;-84
2023/07/08 09:48:20;;;;;;;8.60;5.30;;;25.50;96.90;;;;;;476920;248;28928;-80
2023/07/08 09:50:22;;;;;;;7.63;5.53;;;25.60;97.80;;;;;;476912;248;28875;-80
2023/07/08 09:52:23;;;;;;;7.43;5.77;;;25.70;97.30;;;;;;476922;248;28929;-80
2023/07/08 09:54:24;;;;;;;7.50;5.87;;;25.60;97.30;;;;;;476899;248;29015;-80
2023/07/08 09:56:25;;;;;;;10.13;5.10;;;25.50;96.70;;;;;;476936;248;28879;-81
2023/07/08 09:58:27;;;;;;;7.60;5.20;;;25.60;97.30;;;;;;476950;248;28849;-81
2023/07/08 10:00:28;;;;;;;8.83;5.33;;;25.80;97.20;;;;;;476956;248;29454;-80
2023/07/08 10:02:29;;;;;;;8.83;5.30;;;26.00;96.50;;;;;;476931;248;29307;-81
2023/07/08 10:04:30;;;;;;;6.30;5.40;;;26.00;96.90;;;;;;476935;248;29384;-81
2023/07/08 10:06:32;;;;;;;5.93;4.90;;;26.00;96.70;;;;;;476935;248;29292;-81
2023/07/08 10:08:33;;;;;;;6.70;5.00;;;26.10;96.50;;;;;;476951;248;28838;-80
2023/07/08 10:10:34;;;;;;;8.30;5.40;;;26.20;97.10;;;;;;476973;248;28782;-79
2023/07/08 10:12:35;;;;;;;6.67;4.83;;;26.20;96.30;;;;;;476944;248;28926;-80
2023/07/08 10:14:37;;;;;;;10.30;5.67;;;26.20;96.40;;;;;;476925;248;28878;-80
2023/07/08 10:16:38;;;;;;;6.03;5.03;;;26.20;96.60;;;;;;476890;248;28972;-81
2023/07/08 10:18:39;;;;;;;8.40;5.60;;;26.20;96.40;;;;;;476926;248;28845;-80
2023/07/08 10:20:40;;;;;;;8.47;5.43;;;26.20;97.00;;;;;;476926;248;28858;-80
2023/07/08 10:22:42;;;;;;;9.70;5.67;;;26.40;95.80;;;;;;476960;248;28763;-81
2023/07/08 10:24:43;;;;;;;7.97;5.37;;;26.30;96.00;;;;;;476879;248;29392;-81
2023/07/08 10:26:44;;;;;;;7.60;6.00;;;26.20;96.90;;;;;;476923;249;30054;-81